sensor_id;sensor_type;location;lat;lon;timestamp;temperature;humidity
37408;DHT22;24866;50.248;8.252;2022-09-03T00:00:21;16.30;99.90
37408;DHT22;24866;50.248;8.252;2022-09-03T00:02:58;16.20;99.90
37408;DHT22;24866;50.248;8.252;2022-09-03T00:05:34;16.00;1.00
37408;DHT22;24866;50.248;8.252;2022-09-03T00:08:10;16.20;99.90
37408;DHT22;24866;50.248;8.252;2022-09-03T00:10:45;16.50;99.90
37408;DHT22;24866;50.248;8.252;2022-09-03T00:13:23;16.50;99.90
37408;DHT22;24866;50.248;8.252;2022-09-03T00:15:57;16.30;99.90
37408;DHT22;24866;50.248;8.252;2022-09-03T00:18:30;16.40;99.90
37408;DHT22;24866;50.248;8.252;2022-09-03T00:21:06;16.70;1.00
37408;DHT22;24866;50.248;8.252;2022-09-03T00:23:39;16.70;1.00
37408;DHT22;24866;50.248;8.252;2022-09-03T00:26:18;16.50;99.90
37408;DHT22;24866;50.248;8.252;2022-09-03T00:28:58;16.20;99.90
37408;DHT22;24866;50.248;8.252;2022-09-03T00:31:32;16.30;99.90
37408;DHT22;24866;50.248;8.252;2022-09-03T00:34:10;16.70;27.60
37408;DHT22;24866;50.248;8.252;2022-09-03T00:36:44;17.00;1.00
37408;DHT22;24866;50.248;8.252;2022-09-03T00:39:16;16.70;1.00
37408;DHT22;24866;50.248;8.252;2022-09-03T00:41:57;17.00;1.00
37408;DHT22;24866;50.248;8.252;2022-09-03T00:44:53;17.00;1.00
37408;DHT22;24866;50.248;8.252;2022-09-03T00:47:28;16.80;1.00
37408;DHT22;24866;50.248;8.252;2022-09-03T00:50:08;16.80;1.00
37408;DHT22;24866;50.248;8.252;2022-09-03T00:52:45;16.80;1.00
37408;DHT22;24866;50.248;8.252;2022-09-03T00:55:27;16.70;1.00
37408;DHT22;24866;50.248;8.252;2022-09-03T00:58:18;16.80;1.00
37408;DHT22;24866;50.248;8.252;2022-09-03T01:00:52;16.80;1.00
37408;DHT22;24866;50.248;8.252;2022-09-03T01:03:30;16.80;1.00
37408;DHT22;24866;50.248;8.252;2022-09-03T01:06:11;16.70;1.00
37408;DHT22;24866;50.248;8.252;2022-09-03T01:09:01;16.60;1.00
37408;DHT22;24866;50.248;8.252;2022-09-03T01:11:38;16.50;33.40
37408;DHT22;24866;50.248;8.252;2022-09-03T01:14:25;16.50;51.60
37408;DHT22;24866;50.248;8.252;2022-09-03T01:17:07;16.60;1.10
37408;DHT22;24866;50.248;8.252;2022-09-03T01:19:57;16.70;1.00
37408;DHT22;24866;50.248;8.252;2022-09-03T01:22:56;16.70;1.00
37408;DHT22;24866;50.248;8.252;2022-09-03T01:25:41;16.80;1.00
37408;DHT22;24866;50.248;8.252;2022-09-03T01:28:25;16.80;1.00
37408;DHT22;24866;50.248;8.252;2022-09-03T01:31:07;16.70;1.00
37408;DHT22;24866;50.248;8.252;2022-09-03T01:33:47;16.60;1.00
37408;DHT22;24866;50.248;8.252;2022-09-03T01:36:24;16.60;24.30
37408;DHT22;24866;50.248;8.252;2022-09-03T01:38:59;16.60;50.00
37408;DHT22;24866;50.248;8.252;2022-09-03T01:41:43;16.60;99.90
37408;DHT22;24866;50.248;8.252;2022-09-03T01:44:41;16.50;99.90
37408;DHT22;24866;50.248;8.252;2022-09-03T01:47:27;16.50;99.90
37408;DHT22;24866;50.248;8.252;2022-09-03T01:50:05;16.60;99.90
37408;DHT22;24866;50.248;8.252;2022-09-03T01:52:42;16.60;99.90
37408;DHT22;24866;50.248;8.252;2022-09-03T01:55:27;16.60;99.90
37408;DHT22;24866;50.248;8.252;2022-09-03T01:58:01;16.50;99.90
37408;DHT22;24866;50.248;8.252;2022-09-03T02:00:39;16.60;99.90
37408;DHT22;24866;50.248;8.252;2022-09-03T02:03:11;16.50;99.90
37408;DHT22;24866;50.248;8.252;2022-09-03T02:05:42;16.50;99.90
37408;DHT22;24866;50.248;8.252;2022-09-03T02:08:14;16.50;99.90
37408;DHT22;24866;50.248;8.252;2022-09-03T02:10:46;16.40;99.90
37408;DHT22;24866;50.248;8.252;2022-09-03T02:13:19;16.40;99.90
37408;DHT22;24866;50.248;8.252;2022-09-03T02:15:52;16.60;1.00
37408;DHT22;24866;50.248;8.252;2022-09-03T02:18:27;16.60;1.00
37408;DHT22;24866;50.248;8.252;2022-09-03T02:20:59;16.60;1.00
37408;DHT22;24866;50.248;8.252;2022-09-03T02:23:29;16.50;1.00
37408;DHT22;24866;50.248;8.252;2022-09-03T02:26:01;16.40;1.00
37408;DHT22;24866;50.248;8.252;2022-09-03T02:28:32;16.30;1.00
37408;DHT22;24866;50.248;8.252;2022-09-03T02:31:04;16.30;1.00
37408;DHT22;24866;50.248;8.252;2022-09-03T02:33:36;16.10;1.00
37408;DHT22;24866;50.248;8.252;2022-09-03T02:36:09;16.30;51.10
37408;DHT22;24866;50.248;8.252;2022-09-03T02:38:42;16.40;10.60
37408;DHT22;24866;50.248;8.252;2022-09-03T02:41:13;16.40;9.50
37408;DHT22;24866;50.248;8.252;2022-09-03T02:43:46;16.30;1.00
37408;DHT22;24866;50.248;8.252;2022-09-03T02:46:21;16.30;99.90
37408;DHT22;24866;50.248;8.252;2022-09-03T02:48:53;16.20;99.90
37408;DHT22;24866;50.248;8.252;2022-09-03T02:51:23;16.10;1.00
37408;DHT22;24866;50.248;8.252;2022-09-03T02:53:53;16.00;24.90
37408;DHT22;24866;50.248;8.252;2022-09-03T02:56:23;16.20;99.90
37408;DHT22;24866;50.248;8.252;2022-09-03T02:58:55;16.00;99.90
37408;DHT22;24866;50.248;8.252;2022-09-03T03:01:27;15.80;99.90
37408;DHT22;24866;50.248;8.252;2022-09-03T03:03:56;15.70;1.00
37408;DHT22;24866;50.248;8.252;2022-09-03T03:06:26;15.70;99.90
37408;DHT22;24866;50.248;8.252;2022-09-03T03:08:56;16.00;99.90
37408;DHT22;24866;50.248;8.252;2022-09-03T03:11:27;16.00;99.90
37408;DHT22;24866;50.248;8.252;2022-09-03T03:13:58;16.00;99.90
37408;DHT22;24866;50.248;8.252;2022-09-03T03:16:29;15.90;99.90
37408;DHT22;24866;50.248;8.252;2022-09-03T03:18:59;15.70;99.90
37408;DHT22;24866;50.248;8.252;2022-09-03T03:21:29;15.90;99.90
37408;DHT22;24866;50.248;8.252;2022-09-03T03:24:00;16.00;99.90
37408;DHT22;24866;50.248;8.252;2022-09-03T03:26:30;16.00;99.90
37408;DHT22;24866;50.248;8.252;2022-09-03T03:29:01;15.90;99.90
37408;DHT22;24866;50.248;8.252;2022-09-03T03:31:33;16.00;99.90
37408;DHT22;24866;50.248;8.252;2022-09-03T03:34:03;16.20;99.90
37408;DHT22;24866;50.248;8.252;2022-09-03T03:36:33;16.20;99.90
37408;DHT22;24866;50.248;8.252;2022-09-03T03:39:04;16.20;99.90
37408;DHT22;24866;50.248;8.252;2022-09-03T03:41:35;16.30;99.90
37408;DHT22;24866;50.248;8.252;2022-09-03T03:44:06;16.30;99.90
37408;DHT22;24866;50.248;8.252;2022-09-03T03:46:39;16.40;99.90
37408;DHT22;24866;50.248;8.252;2022-09-03T03:49:09;16.30;99.90
37408;DHT22;24866;50.248;8.252;2022-09-03T03:51:39;16.40;99.90
37408;DHT22;24866;50.248;8.252;2022-09-03T03:54:09;16.50;99.90
37408;DHT22;24866;50.248;8.252;2022-09-03T03:56:39;16.50;99.90
37408;DHT22;24866;50.248;8.252;2022-09-03T03:59:09;16.10;99.90
37408;DHT22;24866;50.248;8.252;2022-09-03T04:01:40;15.90;1.00
37408;DHT22;24866;50.248;8.252;2022-09-03T04:04:10;15.80;99.90
37408;DHT22;24866;50.248;8.252;2022-09-03T04:06:41;15.70;1.00
37408;DHT22;24866;50.248;8.252;2022-09-03T04:09:11;15.50;1.00
37408;DHT22;24866;50.248;8.252;2022-09-03T04:11:41;15.70;1.00
37408;DHT22;24866;50.248;8.252;2022-09-03T04:14:10;15.80;1.00
37408;DHT22;24866;50.248;8.252;2022-09-03T04:16:42;16.10;99.90
37408;DHT22;24866;50.248;8.252;2022-09-03T04:19:14;15.90;99.90
37408;DHT22;24866;50.248;8.252;2022-09-03T04:21:44;15.80;1.00
37408;DHT22;24866;50.248;8.252;2022-09-03T04:24:14;15.90;99.90
37408;DHT22;24866;50.248;8.252;2022-09-03T04:26:44;16.00;1.00
37408;DHT22;24866;50.248;8.252;2022-09-03T04:29:14;16.10;99.90
37408;DHT22;24866;50.248;8.252;2022-09-03T04:31:46;16.20;99.90
37408;DHT22;24866;50.248;8.252;2022-09-03T04:34:31;16.30;25.40
37408;DHT22;24866;50.248;8.252;2022-09-03T04:37:00;16.40;1.00
37408;DHT22;24866;50.248;8.252;2022-09-03T04:39:30;16.40;1.00
37408;DHT22;24866;50.248;8.252;2022-09-03T04:42:00;16.40;1.00
37408;DHT22;24866;50.248;8.252;2022-09-03T04:44:30;16.50;1.00
37408;DHT22;24866;50.248;8.252;2022-09-03T04:47:01;16.50;1.00
37408;DHT22;24866;50.248;8.252;2022-09-03T04:49:31;16.50;1.00
37408;DHT22;24866;50.248;8.252;2022-09-03T04:52:02;16.50;1.00
37408;DHT22;24866;50.248;8.252;2022-09-03T04:54:32;16.50;1.00
37408;DHT22;24866;50.248;8.252;2022-09-03T04:57:02;16.50;1.00
37408;DHT22;24866;50.248;8.252;2022-09-03T04:59:32;16.60;1.00
37408;DHT22;24866;50.248;8.252;2022-09-03T05:02:04;16.70;1.00
37408;DHT22;24866;50.248;8.252;2022-09-03T05:04:34;16.70;1.00
37408;DHT22;24866;50.248;8.252;2022-09-03T05:07:03;16.70;1.00
37408;DHT22;24866;50.248;8.252;2022-09-03T05:09:33;16.80;1.00
37408;DHT22;24866;50.248;8.252;2022-09-03T05:12:04;16.80;1.00
37408;DHT22;24866;50.248;8.252;2022-09-03T05:14:33;16.80;1.00
37408;DHT22;24866;50.248;8.252;2022-09-03T05:17:05;16.80;1.00
37408;DHT22;24866;50.248;8.252;2022-09-03T05:19:35;16.90;1.00
37408;DHT22;24866;50.248;8.252;2022-09-03T05:22:05;16.80;1.00
37408;DHT22;24866;50.248;8.252;2022-09-03T05:24:35;16.90;1.00
37408;DHT22;24866;50.248;8.252;2022-09-03T05:27:05;17.00;1.00
37408;DHT22;24866;50.248;8.252;2022-09-03T05:29:35;17.00;1.00
37408;DHT22;24866;50.248;8.252;2022-09-03T05:32:06;16.90;1.00
37408;DHT22;24866;50.248;8.252;2022-09-03T05:34:36;16.80;1.00
37408;DHT22;24866;50.248;8.252;2022-09-03T05:37:06;16.90;1.00
37408;DHT22;24866;50.248;8.252;2022-09-03T05:39:36;16.80;1.00
37408;DHT22;24866;50.248;8.252;2022-09-03T05:42:06;16.70;1.00
37408;DHT22;24866;50.248;8.252;2022-09-03T05:44:36;16.70;1.00
37408;DHT22;24866;50.248;8.252;2022-09-03T05:47:08;16.70;1.00
37408;DHT22;24866;50.248;8.252;2022-09-03T05:49:37;16.60;1.00
37408;DHT22;24866;50.248;8.252;2022-09-03T05:52:07;16.60;1.00
37408;DHT22;24866;50.248;8.252;2022-09-03T05:54:37;16.70;1.00
37408;DHT22;24866;50.248;8.252;2022-09-03T05:57:07;16.60;1.00
37408;DHT22;24866;50.248;8.252;2022-09-03T05:59:37;16.60;1.00
37408;DHT22;24866;50.248;8.252;2022-09-03T06:02:08;16.60;1.00
37408;DHT22;24866;50.248;8.252;2022-09-03T06:04:38;16.70;1.00
37408;DHT22;24866;50.248;8.252;2022-09-03T06:07:08;16.60;20.40
37408;DHT22;24866;50.248;8.252;2022-09-03T06:09:38;16.80;1.00
37408;DHT22;24866;50.248;8.252;2022-09-03T06:12:08;16.80;1.00
37408;DHT22;24866;50.248;8.252;2022-09-03T06:14:38;16.80;58.10
37408;DHT22;24866;50.248;8.252;2022-09-03T06:17:09;16.80;99.90
37408;DHT22;24866;50.248;8.252;2022-09-03T06:19:40;16.80;1.00
37408;DHT22;24866;50.248;8.252;2022-09-03T06:22:10;16.80;57.70
37408;DHT22;24866;50.248;8.252;2022-09-03T06:24:40;16.80;99.90
37408;DHT22;24866;50.248;8.252;2022-09-03T06:27:10;16.80;9.30
37408;DHT22;24866;50.248;8.252;2022-09-03T06:29:40;16.80;99.90
37408;DHT22;24866;50.248;8.252;2022-09-03T06:32:12;16.70;96.60
37408;DHT22;24866;50.248;8.252;2022-09-03T06:34:42;16.70;99.90
37408;DHT22;24866;50.248;8.252;2022-09-03T06:37:12;16.80;1.00
37408;DHT22;24866;50.248;8.252;2022-09-03T06:39:42;16.80;99.90
37408;DHT22;24866;50.248;8.252;2022-09-03T06:42:12;16.70;99.90
37408;DHT22;24866;50.248;8.252;2022-09-03T06:44:42;16.70;99.90
37408;DHT22;24866;50.248;8.252;2022-09-03T06:47:13;16.60;1.00
37408;DHT22;24866;50.248;8.252;2022-09-03T06:49:43;16.60;1.00
37408;DHT22;24866;50.248;8.252;2022-09-03T06:52:13;16.50;99.90
37408;DHT22;24866;50.248;8.252;2022-09-03T06:54:43;16.30;1.00
37408;DHT22;24866;50.248;8.252;2022-09-03T06:57:13;16.00;1.00
37408;DHT22;24866;50.248;8.252;2022-09-03T06:59:43;15.80;99.90
37408;DHT22;24866;50.248;8.252;2022-09-03T07:02:14;15.50;99.90
37408;DHT22;24866;50.248;8.252;2022-09-03T07:04:46;15.40;99.90
37408;DHT22;24866;50.248;8.252;2022-09-03T07:07:16;15.30;99.90
37408;DHT22;24866;50.248;8.252;2022-09-03T07:09:46;15.30;99.90
37408;DHT22;24866;50.248;8.252;2022-09-03T07:12:16;15.70;99.90
37408;DHT22;24866;50.248;8.252;2022-09-03T07:14:46;16.00;99.90
37408;DHT22;24866;50.248;8.252;2022-09-03T07:17:18;15.70;99.90
37408;DHT22;24866;50.248;8.252;2022-09-03T07:19:47;15.70;99.90
37408;DHT22;24866;50.248;8.252;2022-09-03T07:22:17;15.70;99.90
37408;DHT22;24866;50.248;8.252;2022-09-03T07:24:47;16.00;99.90
37408;DHT22;24866;50.248;8.252;2022-09-03T07:27:19;16.20;99.90
37408;DHT22;24866;50.248;8.252;2022-09-03T07:29:49;16.00;99.90
37408;DHT22;24866;50.248;8.252;2022-09-03T07:32:20;16.00;99.90
37408;DHT22;24866;50.248;8.252;2022-09-03T07:34:50;16.10;99.90
37408;DHT22;24866;50.248;8.252;2022-09-03T07:37:21;16.40;99.90
37408;DHT22;24866;50.248;8.252;2022-09-03T07:39:50;16.40;99.90
37408;DHT22;24866;50.248;8.252;2022-09-03T07:42:21;15.80;99.90
37408;DHT22;24866;50.248;8.252;2022-09-03T07:44:51;15.70;99.90
37408;DHT22;24866;50.248;8.252;2022-09-03T07:47:22;15.70;99.90
37408;DHT22;24866;50.248;8.252;2022-09-03T07:49:53;15.60;99.90
37408;DHT22;24866;50.248;8.252;2022-09-03T07:52:23;15.50;99.90
37408;DHT22;24866;50.248;8.252;2022-09-03T07:54:53;15.60;99.90
37408;DHT22;24866;50.248;8.252;2022-09-03T07:57:23;15.50;99.90
37408;DHT22;24866;50.248;8.252;2022-09-03T07:59:53;15.50;99.90
37408;DHT22;24866;50.248;8.252;2022-09-03T08:02:24;15.50;99.90
37408;DHT22;24866;50.248;8.252;2022-09-03T08:04:54;15.60;99.90
37408;DHT22;24866;50.248;8.252;2022-09-03T08:07:24;15.50;99.90
37408;DHT22;24866;50.248;8.252;2022-09-03T08:09:54;15.50;99.90
37408;DHT22;24866;50.248;8.252;2022-09-03T08:12:24;15.80;99.90
37408;DHT22;24866;50.248;8.252;2022-09-03T08:14:54;15.90;99.90
37408;DHT22;24866;50.248;8.252;2022-09-03T08:17:27;16.00;99.90
37408;DHT22;24866;50.248;8.252;2022-09-03T08:19:57;15.90;99.90
37408;DHT22;24866;50.248;8.252;2022-09-03T08:22:28;15.90;99.90
37408;DHT22;24866;50.248;8.252;2022-09-03T08:24:58;16.00;99.90
37408;DHT22;24866;50.248;8.252;2022-09-03T08:27:28;16.00;99.90
37408;DHT22;24866;50.248;8.252;2022-09-03T08:30:00;15.80;99.90
37408;DHT22;24866;50.248;8.252;2022-09-03T08:32:33;16.00;99.90
37408;DHT22;24866;50.248;8.252;2022-09-03T08:35:04;15.90;99.90
37408;DHT22;24866;50.248;8.252;2022-09-03T08:37:35;15.90;99.90
37408;DHT22;24866;50.248;8.252;2022-09-03T08:40:05;16.20;99.90
37408;DHT22;24866;50.248;8.252;2022-09-03T08:42:45;16.00;99.90
37408;DHT22;24866;50.248;8.252;2022-09-03T08:45:19;16.00;99.90
37408;DHT22;24866;50.248;8.252;2022-09-03T08:47:55;16.10;99.90
37408;DHT22;24866;50.248;8.252;2022-09-03T08:50:30;16.30;99.90
37408;DHT22;24866;50.248;8.252;2022-09-03T08:53:06;16.40;99.90
37408;DHT22;24866;50.248;8.252;2022-09-03T08:55:42;16.30;99.90
37408;DHT22;24866;50.248;8.252;2022-09-03T08:58:17;16.30;99.90
37408;DHT22;24866;50.248;8.252;2022-09-03T09:00:52;16.10;99.90
37408;DHT22;24866;50.248;8.252;2022-09-03T09:03:50;16.30;99.90
37408;DHT22;24866;50.248;8.252;2022-09-03T09:06:30;16.40;99.90
37408;DHT22;24866;50.248;8.252;2022-09-03T09:09:10;16.50;99.90
37408;DHT22;24866;50.248;8.252;2022-09-03T09:11:55;16.90;99.90
37408;DHT22;24866;50.248;8.252;2022-09-03T09:14:33;17.10;99.90
37408;DHT22;24866;50.248;8.252;2022-09-03T09:17:18;16.90;99.90
37408;DHT22;24866;50.248;8.252;2022-09-03T09:19:59;16.80;99.90
37408;DHT22;24866;50.248;8.252;2022-09-03T09:22:36;17.00;99.90
37408;DHT22;24866;50.248;8.252;2022-09-03T09:25:10;17.10;99.90
37408;DHT22;24866;50.248;8.252;2022-09-03T09:27:47;16.90;99.90
37408;DHT22;24866;50.248;8.252;2022-09-03T09:30:19;17.10;99.90
37408;DHT22;24866;50.248;8.252;2022-09-03T09:32:49;17.40;99.90
37408;DHT22;24866;50.248;8.252;2022-09-03T09:35:21;17.40;99.90
37408;DHT22;24866;50.248;8.252;2022-09-03T09:37:52;17.60;99.90
37408;DHT22;24866;50.248;8.252;2022-09-03T09:40:30;17.50;99.90
37408;DHT22;24866;50.248;8.252;2022-09-03T09:43:08;17.60;99.90
37408;DHT22;24866;50.248;8.252;2022-09-03T09:45:40;17.50;99.90
37408;DHT22;24866;50.248;8.252;2022-09-03T09:48:20;17.40;99.90
37408;DHT22;24866;50.248;8.252;2022-09-03T09:51:04;17.50;99.90
37408;DHT22;24866;50.248;8.252;2022-09-03T09:53:34;17.40;99.90
37408;DHT22;24866;50.248;8.252;2022-09-03T09:56:05;17.30;99.90
37408;DHT22;24866;50.248;8.252;2022-09-03T09:58:35;17.20;99.90
37408;DHT22;24866;50.248;8.252;2022-09-03T10:01:16;17.30;99.90
37408;DHT22;24866;50.248;8.252;2022-09-03T10:03:51;17.40;99.90
37408;DHT22;24866;50.248;8.252;2022-09-03T10:06:25;17.60;99.90
37408;DHT22;24866;50.248;8.252;2022-09-03T10:09:15;17.30;99.90
37408;DHT22;24866;50.248;8.252;2022-09-03T10:11:47;17.50;99.90
37408;DHT22;24866;50.248;8.252;2022-09-03T10:14:22;17.60;99.90
37408;DHT22;24866;50.248;8.252;2022-09-03T10:17:00;17.50;99.90
37408;DHT22;24866;50.248;8.252;2022-09-03T10:19:40;17.60;99.90
37408;DHT22;24866;50.248;8.252;2022-09-03T10:22:39;17.40;99.90
37408;DHT22;24866;50.248;8.252;2022-09-03T10:25:10;17.40;99.90
37408;DHT22;24866;50.248;8.252;2022-09-03T10:27:43;17.40;99.90
37408;DHT22;24866;50.248;8.252;2022-09-03T10:30:13;17.50;99.90
37408;DHT22;24866;50.248;8.252;2022-09-03T10:33:00;17.50;99.90
37408;DHT22;24866;50.248;8.252;2022-09-03T10:35:36;17.60;99.90
37408;DHT22;24866;50.248;8.252;2022-09-03T10:38:17;17.90;99.90
37408;DHT22;24866;50.248;8.252;2022-09-03T10:40:57;17.70;99.90
37408;DHT22;24866;50.248;8.252;2022-09-03T10:43:55;17.70;99.90
37408;DHT22;24866;50.248;8.252;2022-09-03T10:46:28;17.60;99.90
37408;DHT22;24866;50.248;8.252;2022-09-03T10:49:24;17.70;99.90
37408;DHT22;24866;50.248;8.252;2022-09-03T10:52:02;17.90;99.90
37408;DHT22;24866;50.248;8.252;2022-09-03T10:54:46;17.80;99.90
37408;DHT22;24866;50.248;8.252;2022-09-03T10:57:31;17.60;99.90
37408;DHT22;24866;50.248;8.252;2022-09-03T11:00:06;17.60;99.90
37408;DHT22;24866;50.248;8.252;2022-09-03T11:05:27;17.60;99.90
37408;DHT22;24866;50.248;8.252;2022-09-03T11:08:01;17.70;99.90
37408;DHT22;24866;50.248;8.252;2022-09-03T11:10:37;17.50;99.90
37408;DHT22;24866;50.248;8.252;2022-09-03T11:13:13;17.60;99.90
37408;DHT22;24866;50.248;8.252;2022-09-03T11:15:48;17.60;99.90
37408;DHT22;24866;50.248;8.252;2022-09-03T11:18:22;17.70;99.90
37408;DHT22;24866;50.248;8.252;2022-09-03T11:20:56;17.80;99.90
37408;DHT22;24866;50.248;8.252;2022-09-03T11:23:29;17.90;99.90
37408;DHT22;24866;50.248;8.252;2022-09-03T11:26:06;18.00;99.90
37408;DHT22;24866;50.248;8.252;2022-09-03T11:28:43;18.30;99.90
37408;DHT22;24866;50.248;8.252;2022-09-03T11:31:29;18.70;99.90
37408;DHT22;24866;50.248;8.252;2022-09-03T11:34:11;18.80;99.90
37408;DHT22;24866;50.248;8.252;2022-09-03T11:36:42;19.10;99.90
37408;DHT22;24866;50.248;8.252;2022-09-03T11:39:17;19.40;99.90
37408;DHT22;24866;50.248;8.252;2022-09-03T11:41:58;19.40;99.90
37408;DHT22;24866;50.248;8.252;2022-09-03T11:44:35;19.30;99.90
37408;DHT22;24866;50.248;8.252;2022-09-03T11:47:14;19.30;99.90
37408;DHT22;24866;50.248;8.252;2022-09-03T11:49:47;19.50;99.90
37408;DHT22;24866;50.248;8.252;2022-09-03T11:52:25;19.30;99.90
37408;DHT22;24866;50.248;8.252;2022-09-03T11:54:56;19.70;99.90
37408;DHT22;24866;50.248;8.252;2022-09-03T11:57:29;20.10;99.90
37408;DHT22;24866;50.248;8.252;2022-09-03T12:00:07;20.60;99.90
37408;DHT22;24866;50.248;8.252;2022-09-03T12:02:43;20.90;99.90
37408;DHT22;24866;50.248;8.252;2022-09-03T12:05:20;21.40;99.90
37408;DHT22;24866;50.248;8.252;2022-09-03T12:08:05;21.50;99.90
37408;DHT22;24866;50.248;8.252;2022-09-03T12:10:45;22.00;99.90
37408;DHT22;24866;50.248;8.252;2022-09-03T12:13:28;21.90;99.90
37408;DHT22;24866;50.248;8.252;2022-09-03T12:16:20;21.70;99.90
37408;DHT22;24866;50.248;8.252;2022-09-03T12:18:55;21.50;99.90
37408;DHT22;24866;50.248;8.252;2022-09-03T12:21:28;21.80;99.90
37408;DHT22;24866;50.248;8.252;2022-09-03T12:24:01;21.70;99.90
37408;DHT22;24866;50.248;8.252;2022-09-03T12:26:38;21.40;99.90
37408;DHT22;24866;50.248;8.252;2022-09-03T12:29:22;21.60;99.90
37408;DHT22;24866;50.248;8.252;2022-09-03T12:31:53;21.90;99.90
37408;DHT22;24866;50.248;8.252;2022-09-03T12:34:23;22.20;99.90
37408;DHT22;24866;50.248;8.252;2022-09-03T12:36:54;21.70;99.90
37408;DHT22;24866;50.248;8.252;2022-09-03T12:39:26;21.70;99.90
37408;DHT22;24866;50.248;8.252;2022-09-03T12:42:00;22.00;99.90
37408;DHT22;24866;50.248;8.252;2022-09-03T12:44:38;21.80;99.90
37408;DHT22;24866;50.248;8.252;2022-09-03T12:47:11;21.50;99.90
37408;DHT22;24866;50.248;8.252;2022-09-03T12:49:43;22.10;99.90
37408;DHT22;24866;50.248;8.252;2022-09-03T12:52:17;22.00;99.90
37408;DHT22;24866;50.248;8.252;2022-09-03T12:54:53;22.10;99.90
37408;DHT22;24866;50.248;8.252;2022-09-03T12:57:28;22.40;99.90
37408;DHT22;24866;50.248;8.252;2022-09-03T13:00:05;22.40;1.00
37408;DHT22;24866;50.248;8.252;2022-09-03T13:02:38;22.20;99.90
37408;DHT22;24866;50.248;8.252;2022-09-03T13:05:14;21.80;1.00
37408;DHT22;24866;50.248;8.252;2022-09-03T13:07:48;21.90;99.90
37408;DHT22;24866;50.248;8.252;2022-09-03T13:10:25;22.20;1.00
37408;DHT22;24866;50.248;8.252;2022-09-03T13:12:58;22.10;1.00
37408;DHT22;24866;50.248;8.252;2022-09-03T13:15:31;22.10;99.90
37408;DHT22;24866;50.248;8.252;2022-09-03T13:18:12;21.70;1.00
37408;DHT22;24866;50.248;8.252;2022-09-03T13:20:54;21.70;30.00
37408;DHT22;24866;50.248;8.252;2022-09-03T13:23:36;21.80;95.40
37408;DHT22;24866;50.248;8.252;2022-09-03T13:26:18;22.10;1.00
37408;DHT22;24866;50.248;8.252;2022-09-03T13:29:00;21.90;99.90
37408;DHT22;24866;50.248;8.252;2022-09-03T13:31:42;21.80;1.00
37408;DHT22;24866;50.248;8.252;2022-09-03T13:34:19;21.70;1.00
37408;DHT22;24866;50.248;8.252;2022-09-03T13:36:54;22.00;1.00
37408;DHT22;24866;50.248;8.252;2022-09-03T13:39:31;22.00;1.00
37408;DHT22;24866;50.248;8.252;2022-09-03T13:42:08;22.40;1.00
37408;DHT22;24866;50.248;8.252;2022-09-03T13:44:43;22.20;1.00
37408;DHT22;24866;50.248;8.252;2022-09-03T13:47:25;21.60;99.90
37408;DHT22;24866;50.248;8.252;2022-09-03T13:50:02;22.00;1.00
37408;DHT22;24866;50.248;8.252;2022-09-03T13:52:53;22.10;99.90
37408;DHT22;24866;50.248;8.252;2022-09-03T13:55:32;22.20;1.00
37408;DHT22;24866;50.248;8.252;2022-09-03T13:58:07;21.90;99.90
37408;DHT22;24866;50.248;8.252;2022-09-03T14:00:45;21.70;1.00
37408;DHT22;24866;50.248;8.252;2022-09-03T14:03:25;21.70;1.00
37408;DHT22;24866;50.248;8.252;2022-09-03T14:06:05;21.90;1.00
37408;DHT22;24866;50.248;8.252;2022-09-03T14:08:44;21.80;1.00
37408;DHT22;24866;50.248;8.252;2022-09-03T14:11:25;21.80;1.00
37408;DHT22;24866;50.248;8.252;2022-09-03T14:14:05;21.90;1.00
37408;DHT22;24866;50.248;8.252;2022-09-03T14:16:41;22.00;99.90
37408;DHT22;24866;50.248;8.252;2022-09-03T14:19:18;22.00;1.00
37408;DHT22;24866;50.248;8.252;2022-09-03T14:21:53;22.50;99.90
37408;DHT22;24866;50.248;8.252;2022-09-03T14:24:30;22.60;99.90
37408;DHT22;24866;50.248;8.252;2022-09-03T14:27:05;22.70;99.90
37408;DHT22;24866;50.248;8.252;2022-09-03T14:29:36;22.90;1.00
37408;DHT22;24866;50.248;8.252;2022-09-03T14:32:23;22.50;1.00
37408;DHT22;24866;50.248;8.252;2022-09-03T14:35:12;22.60;1.00
37408;DHT22;24866;50.248;8.252;2022-09-03T14:44:40;22.10;99.90
37408;DHT22;24866;50.248;8.252;2022-09-03T14:47:22;22.10;1.00
37408;DHT22;24866;50.248;8.252;2022-09-03T14:50:13;22.00;1.00
37408;DHT22;24866;50.248;8.252;2022-09-03T14:52:58;22.10;97.30
37408;DHT22;24866;50.248;8.252;2022-09-03T14:55:39;22.10;99.90
37408;DHT22;24866;50.248;8.252;2022-09-03T14:58:23;22.50;1.00
37408;DHT22;24866;50.248;8.252;2022-09-03T15:00:59;22.30;1.00
37408;DHT22;24866;50.248;8.252;2022-09-03T15:03:57;22.50;1.00
37408;DHT22;24866;50.248;8.252;2022-09-03T15:06:45;22.20;1.00
37408;DHT22;24866;50.248;8.252;2022-09-03T15:09:27;22.50;1.00
37408;DHT22;24866;50.248;8.252;2022-09-03T15:12:07;22.80;1.00
37408;DHT22;24866;50.248;8.252;2022-09-03T15:14:45;22.50;99.90
37408;DHT22;24866;50.248;8.252;2022-09-03T15:17:37;22.50;99.90
37408;DHT22;24866;50.248;8.252;2022-09-03T15:20:25;22.50;99.90
37408;DHT22;24866;50.248;8.252;2022-09-03T15:23:10;22.60;1.00
37408;DHT22;24866;50.248;8.252;2022-09-03T15:26:04;22.70;1.00
37408;DHT22;24866;50.248;8.252;2022-09-03T15:28:49;22.50;99.90
37408;DHT22;24866;50.248;8.252;2022-09-03T15:31:29;22.40;1.00
37408;DHT22;24866;50.248;8.252;2022-09-03T15:34:21;22.60;99.90
37408;DHT22;24866;50.248;8.252;2022-09-03T15:36:59;22.80;99.90
37408;DHT22;24866;50.248;8.252;2022-09-03T15:39:35;22.70;99.90
37408;DHT22;24866;50.248;8.252;2022-09-03T15:42:09;22.80;1.00
37408;DHT22;24866;50.248;8.252;2022-09-03T15:44:47;22.80;1.00
37408;DHT22;24866;50.248;8.252;2022-09-03T15:47:33;22.80;1.00
37408;DHT22;24866;50.248;8.252;2022-09-03T15:50:14;22.40;1.00
37408;DHT22;24866;50.248;8.252;2022-09-03T15:52:53;22.10;99.90
37408;DHT22;24866;50.248;8.252;2022-09-03T15:55:32;22.10;99.90
37408;DHT22;24866;50.248;8.252;2022-09-03T15:58:21;22.00;99.90
37408;DHT22;24866;50.248;8.252;2022-09-03T16:00:55;22.00;99.90
37408;DHT22;24866;50.248;8.252;2022-09-03T16:03:36;21.80;1.00
37408;DHT22;24866;50.248;8.252;2022-09-03T16:06:23;21.60;1.00
37408;DHT22;24866;50.248;8.252;2022-09-03T16:08:56;21.60;66.80
37408;DHT22;24866;50.248;8.252;2022-09-03T16:11:35;21.50;99.90
37408;DHT22;24866;50.248;8.252;2022-09-03T16:14:09;21.60;99.90
37408;DHT22;24866;50.248;8.252;2022-09-03T16:16:51;21.50;99.90
37408;DHT22;24866;50.248;8.252;2022-09-03T16:19:26;21.40;99.90
37408;DHT22;24866;50.248;8.252;2022-09-03T16:21:59;21.40;99.90
37408;DHT22;24866;50.248;8.252;2022-09-03T16:24:36;21.40;99.90
37408;DHT22;24866;50.248;8.252;2022-09-03T16:27:15;21.40;99.90
37408;DHT22;24866;50.248;8.252;2022-09-03T16:29:56;21.40;99.90
37408;DHT22;24866;50.248;8.252;2022-09-03T16:32:34;21.30;99.90
37408;DHT22;24866;50.248;8.252;2022-09-03T16:35:16;21.30;99.90